Micco, Florida
Current Conditions -  °F | °C
As of 11:53 PM on Saturday 25 Oct 2014 (Local Time) from KVRB Reporting Station
Clear Clear  
Wind Chill: 18°   Ceiling: Unl
Heat Index: 18°   Visibility: 10mi
Dew Point: 16°   Wind: 7mph
Humidity: 87%   Direction: 330°NNW
Pressure: 29.97"   Gusts: NA
Location:  27.8606°N, 80.5442°W
Report Text: KVRB 260353Z AUTO 33006KT 10SM CLR 18/16 A2997 RMK AO2 SLP146 T01830161 $
Loading
Personal Weather Stations






























Interactive Weather Map
Tropical Storm Tracking
New forecast layout! Learn more

10-Day Weather Forecast

Advertisements
Track Severe Weather on mobile